45VA weather

CLOSED Frog Hollow Farm Airport
West Point, Virginia, United States

Public forecast

Using degrees Fahrenheit for public forecast. Weather courtesy of forecast.io.

METAR (pilot weather report)

Closest report is Tappahannock-Essex County Airport, 11.0 nm (20.3 km) NNE. Retrieved 2019/03/21 02:55 UTC (11 minutes ago):

KXSA 210255Z AUTO 00000KT 10SM RA SCT044 SCT050 07/06 A3020 RMK AO2 P0001 60002 T00650057

TAF (pilot weather forecast)

Forecast is more than 12 hours old.

Closest forecast is Richmond International Airport, 19.2 nm (35.6 km) SW. Retrieved 2019/03/20 00:36 UTC (1 day ago):

TAF KRIC 202334Z 2100/2124 08006KT 6SM -RA OVC040 FM210200 06005KT 4SM -RA BR OVC015 FM210500 06005KT 3SM -RA BR OVC007 FM211200 10009KT 4SM -RA BR OVC007 FM211800 29005KT 6SM -RA OVC015